Time;durP1;ratioP1;P1;durP2;ratioP2;P2;SDS_P1;SDS_P2;PMS_P1;PMS_P2;Temp;Humidity;BMP_temperature;BMP_pressure;BME280_temperature;BME280_humidity;BME280_pressure;Samples;Min_cycle;Max_cycle;Signal;HPM_P1;HPM_P2
2022/11/13 00:01:44;;;;;;;57.60;31.92;;;4.60;63.90;;;;;;7368963;19;20006;-74
2022/11/13 00:04:14;;;;;;;88.50;35.35;;;4.50;63.90;;;;;;7367155;19;20011;-74
2022/11/13 00:06:44;;;;;;;137.73;44.40;;;4.60;63.80;;;;;;7387316;19;20019;-74
2022/11/13 00:09:17;;;;;;;99.43;38.00;;;4.70;64.00;;;;;;7367062;19;20028;-74
2022/11/13 00:11:47;;;;;;;170.57;41.08;;;4.70;64.00;;;;;;7368192;19;20376;-74
2022/11/13 00:14:17;;;;;;;83.90;35.95;;;4.60;63.70;;;;;;7367398;19;20026;-74
2022/11/13 00:16:47;;;;;;;75.40;34.20;;;4.60;63.70;;;;;;7364940;19;20489;-76
2022/11/13 00:19:17;;;;;;;53.10;29.60;;;4.70;63.80;;;;;;7367638;19;20013;-74
2022/11/13 00:21:46;;;;;;;61.78;32.95;;;4.70;64.00;;;;;;7390060;19;20010;-75
2022/11/13 00:24:19;;;;;;;51.83;30.75;;;4.60;63.70;;;;;;7367463;19;20007;-74
2022/11/13 00:26:49;;;;;;;70.63;34.00;;;4.60;63.90;;;;;;7365804;19;20006;-73
2022/11/13 00:29:18;;;;;;;71.35;31.10;;;4.70;64.10;;;;;;7366884;19;20497;-74
2022/11/13 00:31:48;;;;;;;53.67;26.92;;;4.70;64.10;;;;;;7367627;19;20014;-75
2022/11/13 00:34:18;;;;;;;58.88;28.90;;;4.70;64.10;;;;;;7364143;19;20018;-74
2022/11/13 00:37:08;;;;;;;46.15;24.33;;;4.60;64.00;;;;;;7365356;19;20018;-74
2022/11/13 00:39:40;;;;;;;41.25;22.10;;;4.70;64.20;;;;;;7388706;19;20035;-73
2022/11/13 00:42:10;;;;;;;40.58;21.48;;;4.60;64.30;;;;;;7367775;19;20006;-73
2022/11/13 00:44:40;;;;;;;66.38;24.27;;;4.60;64.10;;;;;;7366625;19;20006;-73
2022/11/13 00:47:10;;;;;;;63.67;25.48;;;4.70;64.20;;;;;;7365116;19;20029;-73
2022/11/13 00:49:39;;;;;;;100.05;27.08;;;4.70;64.30;;;;;;7367121;19;20528;-73
2022/11/13 00:52:09;;;;;;;52.55;25.35;;;4.50;64.10;;;;;;7367383;19;20004;-73
2022/11/13 00:54:42;;;;;;;70.90;27.15;;;4.50;63.90;;;;;;7388779;19;20014;-73
2022/11/13 00:57:11;;;;;;;64.93;24.50;;;4.50;63.80;;;;;;7370891;19;20010;-73
2022/11/13 00:59:41;;;;;;;48.50;24.35;;;4.60;63.90;;;;;;7373349;19;20021;-73
2022/11/13 01:02:14;;;;;;;52.22;23.48;;;4.50;64.10;;;;;;7374286;19;20010;-73
2022/11/13 01:04:44;;;;;;;86.57;25.80;;;4.60;64.00;;;;;;7373367;19;20010;-73
2022/11/13 01:07:14;;;;;;;51.42;23.77;;;4.40;63.90;;;;;;7371870;19;20010;-73
2022/11/13 01:09:46;;;;;;;69.95;24.67;;;4.40;63.70;;;;;;7396104;19;20036;-73
2022/11/13 01:12:16;;;;;;;90.60;25.17;;;4.30;63.50;;;;;;7374873;19;20006;-73
2022/11/13 01:14:46;;;;;;;38.65;22.30;;;4.40;63.50;;;;;;7372364;19;20010;-73
2022/11/13 01:17:15;;;;;;;86.72;25.25;;;4.30;63.40;;;;;;7369795;19;20010;-73
2022/11/13 01:19:45;;;;;;;46.55;21.50;;;4.40;63.60;;;;;;7373816;19;20007;-73
2022/11/13 01:22:15;;;;;;;35.53;19.33;;;4.50;63.80;;;;;;7374667;19;20006;-73
2022/11/13 01:24:47;;;;;;;32.42;18.63;;;4.40;63.80;;;;;;7394879;19;20462;-73
2022/11/13 01:27:17;;;;;;;29.23;17.08;;;4.40;64.00;;;;;;7371437;19;20074;-73
2022/11/13 01:29:47;;;;;;;28.85;17.45;;;4.40;63.90;;;;;;7371829;19;20007;-73
2022/11/13 01:32:17;;;;;;;36.88;18.83;;;4.50;63.90;;;;;;7374214;19;20486;-74
2022/11/13 01:34:47;;;;;;;32.25;17.10;;;4.40;63.80;;;;;;7372642;19;20014;-74
2022/11/13 01:37:17;;;;;;;30.02;16.05;;;4.50;63.80;;;;;;7371719;19;20015;-74
2022/11/13 01:39:49;;;;;;;46.40;18.95;;;4.40;63.80;;;;;;7394564;19;20014;-73
2022/11/13 01:42:19;;;;;;;37.85;17.52;;;4.40;63.80;;;;;;7373385;19;20015;-74
2022/11/13 01:44:52;;;;;;;45.20;18.20;;;4.40;64.00;;;;;;7370725;19;20014;-73
2022/11/13 01:47:23;;;;;;;35.15;17.38;;;4.40;63.70;;;;;;7369747;19;20520;-73
2022/11/13 01:49:55;;;;;;;51.15;18.80;;;4.40;63.60;;;;;;7371860;19;20492;-75
2022/11/13 01:52:28;;;;;;;43.85;19.02;;;4.30;63.60;;;;;;7372844;19;20007;-73
2022/11/13 01:55:04;;;;;;;44.38;18.20;;;4.30;63.60;;;;;;7371291;19;20014;-73
2022/11/13 01:57:34;;;;;;;43.78;18.15;;;4.10;63.20;;;;;;7390776;19;20394;-73
2022/11/13 02:00:09;;;;;;;37.58;18.48;;;4.20;63.20;;;;;;7371238;19;20098;-73
2022/11/13 02:02:39;;;;;;;27.13;17.52;;;4.20;63.20;;;;;;7372446;19;20002;-73
2022/11/13 02:05:10;;;;;;;39.85;19.45;;;4.10;63.00;;;;;;7371456;19;20014;-73
2022/11/13 02:07:40;;;;;;;58.33;20.45;;;4.10;63.10;;;;;;7368443;19;20011;-73
2022/11/13 02:10:13;;;;;;;69.22;21.48;;;4.20;63.20;;;;;;7372078;19;20049;-74
2022/11/13 02:12:44;;;;;;;64.72;21.45;;;4.30;63.20;;;;;;7394178;19;20354;-73
2022/11/13 02:15:15;;;;;;;89.32;22.80;;;4.20;63.70;;;;;;7371098;19;20002;-73
2022/11/13 02:17:48;;;;;;;59.58;21.63;;;4.20;63.50;;;;;;7368740;19;20463;-73
2022/11/13 02:20:21;;;;;;;80.57;21.73;;;4.10;63.40;;;;;;7371890;19;20010;-73
2022/11/13 02:22:57;;;;;;;68.88;21.85;;;4.20;63.40;;;;;;7371743;19;20363;-73
2022/11/13 02:25:31;;;;;;;81.35;23.85;;;4.10;63.50;;;;;;7370427;19;20010;-74
2022/11/13 02:28:01;;;;;;;70.45;21.85;;;3.90;62.90;;;;;;7368769;19;20672;-74
2022/11/13 02:30:33;;;;;;;216.60;29.08;;;3.90;62.70;;;;;;7394001;19;20013;-74
2022/11/13 02:33:03;;;;;;;110.95;25.10;;;3.90;62.50;;;;;;7371581;19;20011;-73
2022/11/13 02:35:35;;;;;;;223.40;27.90;;;3.80;62.50;;;;;;7370201;19;20010;-73
2022/11/13 02:38:06;;;;;;;142.20;21.67;;;3.80;62.30;;;;;;7368335;19;20482;-73
2022/11/13 02:40:39;;;;;;;162.40;24.58;;;3.90;62.70;;;;;;7370022;19;20014;-73
2022/11/13 02:43:08;;;;;;;205.60;29.80;;;3.70;62.50;;;;;;7372039;19;20022;-73
2022/11/13 02:45:39;;;;;;;67.97;21.35;;;3.80;62.40;;;;;;7390744;19;20026;-73
2022/11/13 02:48:09;;;;;;;114.05;24.58;;;3.80;62.40;;;;;;7367894;19;20056;-73
2022/11/13 02:50:40;;;;;;;282.60;32.72;;;3.80;62.30;;;;;;7369755;19;20089;-73
2022/11/13 02:53:10;;;;;;;274.80;34.58;;;3.50;61.80;;;;;;7369989;19;20011;-73
2022/11/13 02:55:42;;;;;;;184.57;28.40;;;3.60;62.10;;;;;;7368709;19;20007;-73
2022/11/13 02:58:12;;;;;;;315.85;37.92;;;3.70;62.30;;;;;;7369100;19;20022;-74
2022/11/13 03:00:42;;;;;;;166.38;27.23;;;3.70;62.60;;;;;;7391543;19;20455;-73
2022/11/13 03:03:12;;;;;;;209.52;30.55;;;3.50;62.50;;;;;;7370705;19;20026;-73
2022/11/13 03:05:41;;;;;;;235.80;34.33;;;3.60;62.50;;;;;;7367703;19;20029;-73
2022/11/13 03:08:11;;;;;;;125.55;26.13;;;3.50;62.60;;;;;;7368766;19;20010;-73
2022/11/13 03:10:44;;;;;;;189.20;32.70;;;3.40;62.20;;;;;;7369140;19;20007;-74
2022/11/13 03:13:13;;;;;;;181.57;27.48;;;3.30;62.60;;;;;;7371170;19;20015;-73
2022/11/13 03:15:44;;;;;;;170.35;28.00;;;3.30;61.90;;;;;;7389935;19;20010;-73
2022/11/13 03:18:14;;;;;;;174.27;27.27;;;3.30;62.30;;;;;;7366542;19;20038;-73
2022/11/13 03:20:45;;;;;;;186.65;27.70;;;3.10;62.30;;;;;;7368138;19;20139;-73
2022/11/13 03:23:15;;;;;;;124.97;23.83;;;3.20;62.00;;;;;;7370198;19;20014;-73
2022/11/13 03:25:47;;;;;;;215.15;32.58;;;3.30;61.90;;;;;;7367115;19;20078;-73
2022/11/13 03:28:17;;;;;;;226.18;30.75;;;3.10;61.70;;;;;;7367739;19;20019;-74
2022/11/13 03:30:49;;;;;;;166.57;28.40;;;3.10;61.10;;;;;;7389514;19;20018;-73
2022/11/13 03:33:19;;;;;;;131.48;23.65;;;3.10;61.30;;;;;;7369990;19;20454;-73
2022/11/13 03:35:49;;;;;;;91.07;24.00;;;3.00;61.10;;;;;;7368108;19;20006;-73
2022/11/13 03:38:19;;;;;;;136.60;25.08;;;3.10;61.30;;;;;;7365893;19;20010;-73
2022/11/13 03:40:52;;;;;;;142.77;25.00;;;3.10;62.00;;;;;;7368410;19;20030;-73
2022/11/13 03:43:22;;;;;;;139.27;25.83;;;2.90;61.90;;;;;;7369073;19;20017;-72
2022/11/13 03:45:52;;;;;;;93.90;21.95;;;2.90;61.60;;;;;;7368633;19;20014;-73
2022/11/13 03:48:22;;;;;;;258.38;35.50;;;3.00;61.70;;;;;;7389631;19;20045;-73
2022/11/13 03:50:56;;;;;;;200.60;27.77;;;2.90;61.80;;;;;;7367886;19;20351;-73
2022/11/13 03:53:25;;;;;;;218.75;28.88;;;2.80;61.70;;;;;;7367097;19;20396;-72
2022/11/13 03:55:58;;;;;;;179.35;24.85;;;2.70;61.40;;;;;;7366625;19;20378;-75
2022/11/13 03:58:28;;;;;;;105.88;23.55;;;2.70;60.80;;;;;;7368288;19;20006;-72
2022/11/13 04:00:58;;;;;;;166.55;25.15;;;2.70;61.00;;;;;;7368200;19;20019;-73
2022/11/13 04:03:28;;;;;;;262.63;34.47;;;2.70;60.80;;;;;;7389097;19;20010;-72
2022/11/13 04:05:58;;;;;;;185.93;26.05;;;2.50;61.00;;;;;;7367772;19;20019;-73
2022/11/13 04:08:28;;;;;;;156.40;27.17;;;2.60;60.70;;;;;;7367101;19;20023;-72
2022/11/13 04:11:10;;;;;;;127.10;23.15;;;2.60;60.80;;;;;;7367385;19;20011;-72
2022/11/13 04:13:41;;;;;;;135.20;24.80;;;2.60;60.80;;;;;;7367595;19;20018;-73
2022/11/13 04:16:10;;;;;;;181.02;29.42;;;2.60;60.70;;;;;;7366414;19;20008;-72
2022/11/13 04:18:40;;;;;;;97.43;22.65;;;2.50;60.80;;;;;;7388934;19;20042;-72
2022/11/13 04:21:10;;;;;;;143.77;26.45;;;2.60;60.30;;;;;;7367875;19;20006;-72
2022/11/13 04:23:40;;;;;;;181.20;31.75;;;2.70;60.50;;;;;;7367754;19;20015;-73
2022/11/13 04:26:13;;;;;;;115.75;26.67;;;2.70;61.00;;;;;;7366467;19;20461;-72
2022/11/13 04:28:42;;;;;;;62.65;23.55;;;2.70;61.70;;;;;;7366942;19;20014;-73
2022/11/13 04:31:12;;;;;;;78.35;23.85;;;2.90;60.80;;;;;;7371900;19;20010;-73
2022/11/13 04:33:42;;;;;;;232.20;32.38;;;2.80;61.10;;;;;;7396757;19;20018;-73
2022/11/13 04:36:12;;;;;;;60.63;22.52;;;2.70;61.60;;;;;;7373959;19;20021;-72
2022/11/13 04:38:42;;;;;;;59.00;22.55;;;2.40;62.20;;;;;;7372946;19;20086;-72
2022/11/13 04:43:57;;;;;;;152.73;27.98;;;2.60;61.40;;;;;;7373578;19;20003;-72
2022/11/13 04:46:27;;;;;;;91.53;23.52;;;2.30;61.20;;;;;;7371003;19;20010;-72
2022/11/13 04:48:57;;;;;;;149.35;24.95;;;2.50;60.70;;;;;;7373409;19;20090;-73
2022/11/13 04:51:26;;;;;;;104.85;24.15;;;2.50;60.50;;;;;;7395041;19;20030;-73
2022/11/13 04:53:56;;;;;;;163.27;25.73;;;2.60;61.00;;;;;;7373016;19;20026;-72
2022/11/13 04:56:29;;;;;;;108.72;22.73;;;2.50;60.70;;;;;;7371479;19;20014;-72
2022/11/13 04:58:58;;;;;;;167.75;26.98;;;2.30;60.90;;;;;;7371798;19;20015;-72
2022/11/13 05:01:28;;;;;;;163.70;28.67;;;2.20;60.80;;;;;;7372672;19;20010;-72
2022/11/13 05:03:58;;;;;;;177.95;29.90;;;2.10;60.80;;;;;;7373463;19;20108;-72
2022/11/13 05:06:28;;;;;;;250.65;31.63;;;2.20;60.20;;;;;;7393940;19;20033;-73
2022/11/13 05:08:58;;;;;;;77.82;20.52;;;2.20;60.50;;;;;;7372687;19;20022;-72
2022/11/13 05:11:31;;;;;;;101.85;23.23;;;2.10;60.40;;;;;;7372460;19;20026;-74
2022/11/13 05:14:00;;;;;;;171.20;26.55;;;2.20;60.90;;;;;;7372602;19;20007;-74
2022/11/13 05:16:33;;;;;;;184.02;26.20;;;2.30;60.10;;;;;;7371486;19;20015;-73
2022/11/13 05:19:05;;;;;;;138.15;25.10;;;2.30;59.90;;;;;;7372028;19;20019;-74
2022/11/13 05:21:35;;;;;;;79.53;21.42;;;2.20;59.80;;;;;;7395548;19;20085;-73
2022/11/13 05:24:06;;;;;;;252.02;27.88;;;2.20;59.80;;;;;;7372725;19;20015;-73
2022/11/13 05:26:39;;;;;;;206.90;29.45;;;2.10;60.10;;;;;;7371461;19;20014;-73
2022/11/13 05:29:09;;;;;;;296.77;33.20;;;2.20;59.70;;;;;;7373310;19;20018;-73
2022/11/13 05:31:39;;;;;;;78.90;21.15;;;2.30;59.90;;;;;;7373028;19;20541;-73
2022/11/13 05:34:09;;;;;;;214.23;26.70;;;2.20;59.80;;;;;;7373017;19;20905;-73
2022/11/13 05:36:39;;;;;;;267.63;31.05;;;2.20;59.70;;;;;;7393093;19;20014;-73
2022/11/13 05:39:09;;;;;;;178.73;26.15;;;2.30;59.80;;;;;;7372077;19;20002;-72
2022/11/13 05:41:41;;;;;;;170.55;26.10;;;2.30;59.80;;;;;;7368979;19;20003;-73
2022/11/13 05:44:11;;;;;;;90.10;19.65;;;2.30;59.90;;;;;;7372251;19;20010;-73
2022/11/13 05:46:41;;;;;;;97.35;23.27;;;2.30;59.90;;;;;;7371405;19;20011;-72
2022/11/13 05:49:12;;;;;;;95.10;22.02;;;2.40;59.90;;;;;;7373173;19;20026;-73
2022/11/13 05:51:41;;;;;;;199.80;25.52;;;2.40;60.60;;;;;;7394550;19;20478;-73
2022/11/13 05:54:18;;;;;;;170.98;24.45;;;2.20;61.20;;;;;;7371919;19;20470;-72
2022/11/13 05:56:51;;;;;;;171.80;21.67;;;2.30;60.90;;;;;;7369931;19;20077;-72
2022/11/13 05:59:20;;;;;;;81.43;19.60;;;2.20;61.40;;;;;;7372474;19;20026;-72
2022/11/13 06:01:50;;;;;;;247.38;27.58;;;2.30;61.00;;;;;;7373121;19;20108;-72
2022/11/13 06:04:20;;;;;;;84.25;18.50;;;2.10;61.50;;;;;;7371221;19;20033;-72
2022/11/13 06:06:51;;;;;;;353.52;31.38;;;2.10;61.20;;;;;;7377663;19;20037;-73
2022/11/13 06:09:21;;;;;;;146.80;23.13;;;2.00;60.60;;;;;;7394553;19;20014;-71
2022/11/13 06:11:53;;;;;;;120.13;19.95;;;2.10;60.30;;;;;;7372910;19;20014;-74
2022/11/13 06:14:23;;;;;;;82.43;19.02;;;2.10;60.30;;;;;;7371989;19;20007;-74
2022/11/13 06:16:53;;;;;;;50.72;17.08;;;2.20;60.50;;;;;;7369882;19;20010;-73
2022/11/13 06:19:23;;;;;;;143.55;24.23;;;2.30;60.80;;;;;;7370721;19;20077;-73
2022/11/13 06:21:53;;;;;;;154.80;20.88;;;2.30;61.10;;;;;;7372490;19;20034;-73
2022/11/13 06:24:23;;;;;;;118.60;21.42;;;2.10;60.80;;;;;;7393507;19;20014;-73
2022/11/13 06:26:55;;;;;;;117.47;20.08;;;2.20;60.90;;;;;;7369887;19;20015;-71
2022/11/13 06:29:25;;;;;;;129.77;19.92;;;2.10;60.70;;;;;;7371682;19;20485;-74
2022/11/13 06:31:55;;;;;;;109.07;18.55;;;2.20;60.70;;;;;;7371693;19;20025;-73
2022/11/13 06:34:25;;;;;;;98.50;20.23;;;2.10;60.70;;;;;;7370535;19;20053;-73
2022/11/13 06:36:54;;;;;;;51.28;15.40;;;2.10;60.50;;;;;;7369860;19;20018;-74
2022/11/13 06:39:24;;;;;;;134.10;20.08;;;2.10;60.50;;;;;;7391019;19;20454;-74
2022/11/13 06:41:57;;;;;;;210.63;31.17;;;2.10;60.70;;;;;;7370912;19;20475;-73
2022/11/13 06:44:27;;;;;;;115.07;20.42;;;2.10;61.60;;;;;;7368472;19;20014;-74
2022/11/13 06:46:57;;;;;;;37.33;17.15;;;1.90;60.60;;;;;;7367974;19;20014;-73
2022/11/13 06:49:26;;;;;;;28.73;15.23;;;2.00;61.00;;;;;;7369405;19;20013;-72
2022/11/13 06:51:56;;;;;;;60.50;17.75;;;2.20;61.10;;;;;;7371075;19;20015;-73
2022/11/13 06:54:26;;;;;;;45.78;17.23;;;2.30;61.10;;;;;;7389414;19;20014;-74
2022/11/13 06:56:58;;;;;;;80.13;18.67;;;2.40;61.40;;;;;;7367527;19;20011;-74
2022/11/13 06:59:28;;;;;;;63.15;17.65;;;2.10;61.40;;;;;;7370341;19;20470;-73
2022/11/13 07:01:58;;;;;;;69.30;16.75;;;2.30;61.50;;;;;;7371375;19;20022;-73
2022/11/13 07:04:28;;;;;;;40.00;15.23;;;2.30;62.20;;;;;;7369431;19;20032;-73
2022/11/13 07:06:57;;;;;;;28.88;13.63;;;2.30;62.60;;;;;;7367487;19;20449;-74
2022/11/13 07:09:27;;;;;;;49.97;17.55;;;2.20;62.70;;;;;;7392855;19;20026;-72
2022/11/13 07:12:00;;;;;;;109.50;18.27;;;2.20;62.70;;;;;;7369713;19;20011;-73
2022/11/13 07:14:30;;;;;;;81.60;17.08;;;2.30;62.60;;;;;;7368872;19;20876;-75
2022/11/13 07:16:59;;;;;;;58.03;16.30;;;2.20;62.00;;;;;;7367884;19;20014;-73
2022/11/13 07:19:39;;;;;;;42.08;15.43;;;2.30;62.20;;;;;;7369183;19;20042;-72
2022/11/13 07:22:08;;;;;;;74.90;17.42;;;2.30;62.00;;;;;;7369385;19;20478;-74
2022/11/13 07:24:38;;;;;;;44.70;17.25;;;2.10;62.70;;;;;;7390561;19;20014;-73
2022/11/13 07:27:11;;;;;;;67.07;16.75;;;2.10;62.10;;;;;;7366641;19;20011;-73
2022/11/13 07:29:41;;;;;;;149.63;22.45;;;2.00;61.90;;;;;;7368700;19;20037;-73
2022/11/13 07:32:10;;;;;;;64.80;15.85;;;2.10;62.10;;;;;;7369855;19;20078;-73
2022/11/13 07:34:40;;;;;;;63.30;16.10;;;1.90;62.90;;;;;;7367151;19;20006;-73
2022/11/13 07:37:10;;;;;;;134.77;19.98;;;2.00;63.40;;;;;;7367420;19;20007;-73
2022/11/13 07:39:40;;;;;;;108.50;18.38;;;2.10;62.40;;;;;;7389856;19;20010;-73
2022/11/13 07:42:12;;;;;;;145.77;20.70;;;2.10;62.20;;;;;;7367118;19;20002;-73
2022/11/13 07:44:42;;;;;;;122.18;20.92;;;1.90;61.90;;;;;;7367322;19;20006;-73
2022/11/13 07:47:27;;;;;;;88.53;15.98;;;2.00;61.90;;;;;;7366948;19;20027;-73
2022/11/13 07:49:57;;;;;;;122.60;17.92;;;2.00;62.80;;;;;;7368242;19;20023;-73
2022/11/13 07:52:38;;;;;;;154.02;19.20;;;2.10;62.40;;;;;;7370032;19;20030;-72
2022/11/13 07:55:09;;;;;;;46.10;14.73;;;2.00;62.40;;;;;;7367462;19;20142;-72
2022/11/13 07:57:41;;;;;;;135.25;21.10;;;2.10;62.40;;;;;;7388751;19;20020;-73
2022/11/13 08:00:12;;;;;;;80.75;15.50;;;2.00;62.10;;;;;;7367923;19;20002;-73
2022/11/13 08:02:42;;;;;;;42.25;15.30;;;2.00;62.00;;;;;;7368809;19;20011;-74
2022/11/13 08:05:12;;;;;;;74.55;15.43;;;2.20;62.40;;;;;;7369996;19;20014;-73
2022/11/13 08:07:42;;;;;;;25.77;13.32;;;2.30;62.80;;;;;;7373432;19;20042;-72
2022/11/13 08:10:19;;;;;;;27.98;14.45;;;2.50;63.60;;;;;;7375899;19;20027;-73
2022/11/13 08:13:00;;;;;;;32.08;14.60;;;2.40;64.00;;;;;;7393389;19;20010;-75
2022/11/13 08:15:30;;;;;;;48.88;15.48;;;2.50;64.00;;;;;;7396335;19;20415;-74
2022/11/13 08:18:01;;;;;;;65.65;16.13;;;2.60;64.10;;;;;;7371138;19;20006;-73
2022/11/13 08:20:32;;;;;;;29.98;12.98;;;2.50;64.00;;;;;;7374145;19;20014;-73
2022/11/13 08:23:05;;;;;;;37.70;13.60;;;2.70;64.20;;;;;;7374742;19;20011;-73
2022/11/13 08:25:37;;;;;;;20.33;12.85;;;2.60;64.10;;;;;;7374419;19;20021;-73
2022/11/13 08:28:09;;;;;;;56.55;15.80;;;2.90;64.40;;;;;;7371690;19;20010;-73
2022/11/13 08:30:44;;;;;;;60.67;16.08;;;2.90;64.50;;;;;;7395351;19;20021;-73
2022/11/13 08:33:14;;;;;;;29.27;13.57;;;2.80;64.60;;;;;;7374668;19;20486;-73
2022/11/13 08:35:44;;;;;;;47.28;13.10;;;2.70;63.00;;;;;;7374527;19;20010;-73
2022/11/13 08:38:14;;;;;;;65.75;15.73;;;2.60;63.10;;;;;;7372762;19;20011;-73
2022/11/13 08:40:43;;;;;;;62.10;15.60;;;2.70;63.10;;;;;;7396501;19;20046;-73
2022/11/13 08:43:16;;;;;;;49.85;14.60;;;2.70;61.90;;;;;;7397615;19;20010;-73
2022/11/13 08:45:47;;;;;;;75.95;15.35;;;2.60;62.00;;;;;;7398180;19;20355;-73
2022/11/13 08:48:17;;;;;;;50.40;14.38;;;2.70;62.10;;;;;;7395287;19;20014;-73
2022/11/13 08:50:47;;;;;;;78.05;17.90;;;2.50;60.00;;;;;;7397862;19;20011;-73
2022/11/13 08:53:17;;;;;;;37.97;13.60;;;2.50;60.10;;;;;;7397650;19;20017;-73
2022/11/13 08:55:47;;;;;;;22.65;12.27;;;2.50;60.10;;;;;;7397412;19;20376;-74
2022/11/13 08:58:19;;;;;;;27.75;12.98;;;2.60;60.90;;;;;;7394210;19;20034;-73
2022/11/13 09:00:49;;;;;;;60.17;14.25;;;2.70;62.20;;;;;;7397507;19;20014;-73
2022/11/13 09:03:19;;;;;;;37.97;13.05;;;2.80;62.30;;;;;;7397595;19;20698;-73
2022/11/13 09:05:49;;;;;;;82.45;16.58;;;2.80;61.10;;;;;;7398160;19;20014;-73
2022/11/13 09:08:18;;;;;;;32.25;12.32;;;2.90;61.70;;;;;;7394311;19;20485;-74
2022/11/13 09:10:48;;;;;;;26.05;12.52;;;3.10;62.10;;;;;;7396246;19;20010;-73
2022/11/13 09:13:21;;;;;;;49.20;13.95;;;3.20;62.30;;;;;;7395404;19;20010;-73
2022/11/13 09:15:51;;;;;;;26.02;12.75;;;2.80;55.70;;;;;;7397324;19;20014;-72
2022/11/13 09:18:21;;;;;;;26.05;12.85;;;3.10;58.50;;;;;;7396194;19;20093;-72
2022/11/13 09:20:51;;;;;;;24.02;12.85;;;3.20;58.90;;;;;;7397488;19;20021;-73
2022/11/13 09:23:21;;;;;;;23.08;13.52;;;3.30;59.50;;;;;;7397431;19;20014;-73
2022/11/13 09:25:51;;;;;;;19.00;12.63;;;3.30;57.80;;;;;;7397097;19;20018;-73
2022/11/13 09:28:23;;;;;;;30.45;12.68;;;3.30;55.80;;;;;;7392888;19;20013;-74
2022/11/13 09:30:53;;;;;;;27.65;13.57;;;3.30;55.80;;;;;;7364510;19;20034;-73
2022/11/13 09:33:23;;;;;;;23.27;13.45;;;3.10;52.20;;;;;;7362344;19;20014;-72
2022/11/13 09:35:52;;;;;;;22.88;13.95;;;3.40;55.20;;;;;;7371662;19;20010;-73
2022/11/13 09:38:22;;;;;;;22.40;14.05;;;3.70;57.10;;;;;;7370430;19;20492;-73
2022/11/13 09:40:57;;;;;;;20.30;14.45;;;3.60;55.40;;;;;;7371216;19;20011;-73
2022/11/13 09:43:36;;;;;;;31.98;15.07;;;3.70;55.80;;;;;;7392672;19;20065;-73
2022/11/13 09:46:11;;;;;;;21.13;14.23;;;3.90;51.30;;;;;;7371265;19;20014;-73
2022/11/13 09:48:45;;;;;;;24.52;14.10;;;4.10;54.00;;;;;;7371420;19;20031;-73
2022/11/13 09:51:20;;;;;;;25.63;13.15;;;3.90;47.20;;;;;;7371577;19;20007;-73
2022/11/13 09:53:50;;;;;;;17.13;12.40;;;4.00;49.50;;;;;;7371193;19;20010;-74
2022/11/13 09:56:30;;;;;;;17.88;12.43;;;3.90;48.50;;;;;;7371202;19;20007;-73
2022/11/13 09:59:15;;;;;;;19.27;12.30;;;3.90;46.20;;;;;;7371457;19;20011;-74
2022/11/13 10:01:53;;;;;;;18.92;13.45;;;4.00;46.60;;;;;;7371725;19;20022;-73
2022/11/13 10:04:31;;;;;;;17.35;12.88;;;4.10;45.30;;;;;;7392056;19;20010;-74
2022/11/13 10:07:10;;;;;;;21.05;13.20;;;4.20;43.30;;;;;;7369521;19;20136;-74
2022/11/13 10:09:51;;;;;;;20.70;13.48;;;4.50;41.40;;;;;;7370872;19;20007;-73
2022/11/13 10:12:22;;;;;;;20.17;14.27;;;4.50;41.60;;;;;;7371986;19;20007;-73
2022/11/13 10:14:57;;;;;;;20.55;14.55;;;4.50;39.50;;;;;;7369369;19;20025;-74
2022/11/13 10:17:33;;;;;;;17.60;13.52;;;4.40;39.80;;;;;;7369906;19;20019;-75
2022/11/13 10:20:05;;;;;;;19.38;13.50;;;4.60;42.30;;;;;;7371179;19;20494;-73
2022/11/13 10:22:40;;;;;;;19.52;13.57;;;4.50;35.80;;;;;;7391560;19;20006;-74
2022/11/13 10:25:17;;;;;;;18.52;12.90;;;4.80;42.00;;;;;;7371159;19;20015;-72
2022/11/13 10:27:51;;;;;;;18.70;12.50;;;4.70;39.20;;;;;;7366244;19;20459;-74
2022/11/13 10:30:24;;;;;;;;;;;4.50;37.90;;;;;;7371486;19;20011;-74
2022/11/13 10:32:54;;;;;;;18.80;12.60;;;5.00;41.20;;;;;;7369788;19;20340;-74
2022/11/13 10:35:44;;;;;;;17.95;12.00;;;5.20;35.50;;;;;;7370056;19;20340;-74
2022/11/13 10:38:24;;;;;;;15.40;11.75;;;5.10;35.40;;;;;;7367784;19;20015;-75
2022/11/13 10:41:05;;;;;;;18.38;13.35;;;5.00;37.50;;;;;;7369357;19;20015;-73
2022/11/13 10:43:35;;;;;;;16.08;12.02;;;5.40;35.40;;;;;;7389427;19;20549;-74
2022/11/13 10:46:08;;;;;;;17.15;12.43;;;5.00;33.50;;;;;;7370081;19;20022;-74
2022/11/13 10:48:38;;;;;;;17.27;12.85;;;5.40;34.20;;;;;;7369041;19;20010;-75
2022/11/13 10:51:22;;;;;;;21.15;12.93;;;5.50;33.40;;;;;;7369618;19;20015;-75
2022/11/13 10:53:52;;;;;;;17.75;12.32;;;5.50;33.00;;;;;;7368697;19;20010;-73
2022/11/13 10:56:28;;;;;;;18.13;13.93;;;5.60;30.00;;;;;;7369269;19;20018;-73
2022/11/13 10:59:09;;;;;;;18.50;13.20;;;5.80;30.10;;;;;;7369652;19;20025;-73
2022/11/13 11:01:43;;;;;;;14.77;11.93;;;6.00;30.40;;;;;;7369626;19;20015;-74
2022/11/13 11:04:15;;;;;;;17.10;12.60;;;5.90;27.00;;;;;;7391127;19;20014;-73
2022/11/13 11:06:45;;;;;;;16.30;12.18;;;5.80;25.80;;;;;;7366789;19;20018;-73
2022/11/13 11:09:41;;;;;;;15.95;11.82;;;5.80;26.90;;;;;;7369569;19;20048;-73
2022/11/13 11:12:21;;;;;;;17.40;13.52;;;5.90;27.90;;;;;;7370049;19;20017;-75
2022/11/13 11:15:08;;;;;;;16.73;13.20;;;6.10;28.60;;;;;;7367465;19;20476;-74
2022/11/13 11:17:45;;;;;;;17.77;12.60;;;6.20;26.50;;;;;;7366998;19;20014;-74
2022/11/13 11:20:27;;;;;;;17.05;13.05;;;6.40;28.10;;;;;;7369181;19;20006;-74
2022/11/13 11:23:01;;;;;;;15.45;12.25;;;6.30;24.50;;;;;;7368494;19;20032;-75
2022/11/13 11:25:39;;;;;;;15.63;12.73;;;6.60;25.20;;;;;;7390063;19;20015;-75
2022/11/13 11:28:16;;;;;;;15.98;12.15;;;6.80;23.60;;;;;;7366858;19;20013;-75
2022/11/13 11:30:52;;;;;;;16.27;12.43;;;6.80;20.80;;;;;;7369448;19;20011;-73
2022/11/13 11:33:32;;;;;;;14.20;11.75;;;6.80;20.10;;;;;;7367692;19;20486;-75
2022/11/13 11:36:09;;;;;;;20.05;15.15;;;7.00;20.90;;;;;;7367249;19;20014;-73
2022/11/13 11:38:49;;;;;;;14.82;11.80;;;7.00;20.90;;;;;;7367509;19;20011;-74
2022/11/13 11:41:25;;;;;;;13.73;10.98;;;7.10;19.00;;;;;;7366988;19;20011;-73
2022/11/13 11:44:01;;;;;;;14.80;12.45;;;7.30;20.50;;;;;;7365669;19;20014;-74
2022/11/13 11:46:32;;;;;;;14.95;11.38;;;7.40;18.90;;;;;;7389760;19;20018;-75
2022/11/13 11:49:05;;;;;;;12.68;11.13;;;7.50;16.20;;;;;;7368963;19;20542;-74
2022/11/13 11:51:43;;;;;;;12.55;10.88;;;7.50;17.10;;;;;;7368351;19;20011;-74
2022/11/13 11:54:22;;;;;;;15.93;11.30;;;7.60;17.20;;;;;;7367960;19;20003;-74
2022/11/13 11:56:54;;;;;;;13.98;10.43;;;7.80;17.20;;;;;;7365989;19;20530;-73
2022/11/13 11:59:36;;;;;;;13.52;10.90;;;7.80;14.20;;;;;;7369158;19;20010;-74
2022/11/13 12:02:39;;;;;;;12.98;10.77;;;7.90;13.60;;;;;;7367921;19;20018;-74
2022/11/13 12:05:23;;;;;;;13.10;11.48;;;8.00;12.30;;;;;;7367456;19;20011;-72
2022/11/13 12:08:07;;;;;;;12.50;10.35;;;8.00;13.20;;;;;;7366937;19;20038;-72
2022/11/13 12:10:44;;;;;;;12.50;10.23;;;8.10;13.00;;;;;;7375207;19;20010;-73
2022/11/13 12:13:30;;;;;;;12.00;9.82;;;8.20;10.80;;;;;;7390234;19;20006;-73
2022/11/13 12:16:08;;;;;;;11.90;9.88;;;8.30;9.60;;;;;;7367383;19;20030;-72
2022/11/13 12:18:47;;;;;;;11.93;9.65;;;8.40;9.80;;;;;;7367116;19;20604;-73
2022/11/13 12:21:25;;;;;;;10.77;9.40;;;8.50;9.70;;;;;;7366823;19;20103;-74
2022/11/13 12:24:10;;;;;;;11.65;9.13;;;8.60;8.20;;;;;;7365959;19;20502;-73
2022/11/13 12:26:47;;;;;;;10.95;9.05;;;8.60;7.70;;;;;;7366575;19;20014;-73
2022/11/13 12:29:30;;;;;;;12.35;9.38;;;8.70;8.10;;;;;;7367552;19;20006;-73
2022/11/13 12:32:09;;;;;;;12.82;9.32;;;8.70;7.40;;;;;;7366511;19;20010;-74
2022/11/13 12:34:44;;;;;;;11.70;9.65;;;8.60;7.10;;;;;;7366645;19;20018;-73
2022/11/13 12:37:23;;;;;;;11.57;10.38;;;8.70;7.60;;;;;;7386211;19;20018;-74
2022/11/13 12:39:58;;;;;;;11.48;10.27;;;8.90;7.70;;;;;;7366578;19;20018;-74
2022/11/13 12:42:35;;;;;;;13.50;10.60;;;8.90;8.70;;;;;;7366786;19;20017;-74
2022/11/13 12:45:14;;;;;;;13.82;12.10;;;8.90;9.00;;;;;;7367492;19;20002;-73
2022/11/13 12:47:43;;;;;;;12.25;10.38;;;8.80;7.90;;;;;;7365028;19;20019;-74
2022/11/13 12:50:26;;;;;;;12.65;9.85;;;8.90;8.20;;;;;;7366012;19;20051;-73
2022/11/13 12:53:06;;;;;;;13.75;10.77;;;8.80;10.50;;;;;;7373728;19;20082;-72
2022/11/13 12:55:37;;;;;;;12.57;10.93;;;8.90;10.10;;;;;;7393053;19;20553;-73
2022/11/13 12:58:11;;;;;;;12.88;10.95;;;8.90;10.30;;;;;;7392440;19;20071;-73
2022/11/13 13:00:52;;;;;;;13.30;11.40;;;8.90;11.10;;;;;;7372749;19;20403;-73
2022/11/13 13:03:38;;;;;;;14.80;12.05;;;9.00;10.90;;;;;;7372319;19;20010;-73
2022/11/13 13:06:19;;;;;;;;;;;9.10;10.70;;;;;;7373670;19;20038;-73